createdAt,value
2023-08-24T00:01:13.582Z,27.52
2023-08-24T00:06:18.274Z,27.26
2023-08-24T00:11:21.612Z,27.29
2023-08-24T00:16:24.889Z,27.13
2023-08-24T00:21:30.717Z,27.09
2023-08-24T00:26:34.057Z,26.91
2023-08-24T00:31:37.427Z,27.09
2023-08-24T00:36:42.262Z,26.94
2023-08-24T00:41:47.033Z,26.50
2023-08-24T00:46:50.419Z,27.08
2023-08-24T00:51:55.114Z,26.43
2023-08-24T00:56:58.597Z,26.38
2023-08-24T01:02:02.788Z,26.89
2023-08-24T01:07:08.207Z,26.72
2023-08-24T01:12:20.371Z,26.74
2023-08-24T01:17:28.854Z,26.64
2023-08-24T01:22:40.302Z,26.51
2023-08-24T01:27:46.213Z,26.39
2023-08-24T01:32:49.622Z,26.19
2023-08-24T01:37:53.236Z,26.18
2023-08-24T01:43:05.218Z,26.25
2023-08-24T01:48:09.506Z,26.06
2023-08-24T01:53:13.982Z,25.92
2023-08-24T01:58:18.785Z,25.69
2023-08-24T02:03:22.106Z,25.86
2023-08-24T02:08:26.092Z,25.71
2023-08-24T02:13:30.593Z,25.47
2023-08-24T02:18:33.603Z,25.44
2023-08-24T02:23:36.861Z,25.46
2023-08-24T02:28:41.572Z,25.54
2023-08-24T02:33:44.866Z,25.29
2023-08-24T02:38:49.090Z,25.49
2023-08-24T02:43:53.861Z,25.35
2023-08-24T02:48:57.200Z,25.34
2023-08-24T02:54:00.390Z,25.27
2023-08-24T02:59:05.074Z,25.28
2023-08-24T03:04:08.294Z,25.22
2023-08-24T03:09:11.625Z,25.30
2023-08-24T03:14:16.297Z,25.36
2023-08-24T03:19:20.268Z,25.11
2023-08-24T03:24:23.420Z,25.05
2023-08-24T03:29:28.173Z,24.87
2023-08-24T03:34:32.702Z,24.86
2023-08-24T03:39:35.997Z,24.84
2023-08-24T03:44:41.433Z,24.91
2023-08-24T03:49:45.863Z,24.66
2023-08-24T03:54:49.266Z,24.79
2023-08-24T03:59:53.944Z,24.69
2023-08-24T04:04:57.213Z,24.63
2023-08-24T04:10:00.645Z,24.51
2023-08-24T04:15:06.517Z,24.66
2023-08-24T04:20:11.748Z,24.59
2023-08-24T04:25:15.051Z,24.40
2023-08-24T04:30:19.815Z,24.65
2023-08-24T04:35:27.777Z,24.51
2023-08-24T04:40:31.047Z,24.22
2023-08-24T04:45:35.698Z,24.38
2023-08-24T04:50:38.963Z,24.54
2023-08-24T04:55:42.268Z,24.40
2023-08-24T05:00:47.193Z,24.39
2023-08-24T05:05:50.629Z,24.14
2023-08-24T05:10:54.363Z,24.22
2023-08-24T05:15:59.046Z,24.12
2023-08-24T05:21:02.409Z,24.34
2023-08-24T05:26:06.645Z,24.35
2023-08-24T05:31:12.296Z,24.64
2023-08-24T05:36:15.628Z,24.45
2023-08-24T05:41:19.055Z,24.35
2023-08-24T05:46:23.746Z,24.27
2023-08-24T05:51:27.022Z,24.18
2023-08-24T05:56:30.284Z,24.25
2023-08-24T06:01:35.060Z,24.22
2023-08-24T06:06:38.751Z,24.32
2023-08-24T06:11:42.325Z,24.29
2023-08-24T06:16:47.029Z,24.24
2023-08-24T06:21:50.343Z,24.36
2023-08-24T06:26:53.612Z,24.38
2023-08-24T06:31:58.276Z,24.42
2023-08-24T06:37:04.864Z,24.53
2023-08-24T06:42:08.397Z,24.36
2023-08-24T06:47:13.186Z,24.39
2023-08-24T06:52:16.494Z,24.44
2023-08-24T06:57:19.739Z,24.15
2023-08-24T07:02:24.624Z,24.10
2023-08-24T07:07:27.987Z,24.26
2023-08-24T07:12:31.403Z,24.60
2023-08-24T07:17:36.360Z,24.50
2023-08-24T07:22:39.810Z,24.53
2023-08-24T07:27:43.842Z,24.74
2023-08-24T07:32:48.566Z,24.75
2023-08-24T07:37:52.559Z,24.96
2023-08-24T07:42:58.040Z,24.91
2023-08-24T07:48:03.015Z,25.12
2023-08-24T07:53:07.052Z,25.08
2023-08-24T07:58:10.209Z,24.83
2023-08-24T08:03:15.389Z,24.52
2023-08-24T08:08:19.285Z,25.31
2023-08-24T08:13:22.583Z,26.31
2023-08-24T08:18:27.243Z,27.61
2023-08-24T08:23:30.508Z,28.27
2023-08-24T08:28:36.031Z,28.74
2023-08-24T08:33:40.703Z,29.40
2023-08-24T08:38:44.078Z,29.18
2023-08-24T08:43:47.413Z,28.83
2023-08-24T08:48:55.131Z,29.59
2023-08-24T08:53:59.000Z,30.93
2023-08-24T08:59:03.932Z,31.80
2023-08-24T09:04:09.081Z,32.30
2023-08-24T09:09:12.814Z,32.66
2023-08-24T09:14:17.051Z,32.47
2023-08-24T09:19:21.776Z,32.53
2023-08-24T09:24:33.265Z,32.61
2023-08-24T09:29:39.666Z,31.99
2023-08-24T09:34:44.608Z,32.18
2023-08-24T09:39:48.839Z,32.50
2023-08-24T09:44:52.243Z,32.53
2023-08-24T09:49:57.608Z,32.36
2023-08-24T09:55:05.778Z,32.24
2023-08-24T10:00:12.817Z,32.51
2023-08-24T10:05:36.402Z,32.78
2023-08-24T10:10:45.215Z,32.83
2023-08-24T10:15:50.491Z,32.39
2023-08-24T10:20:55.474Z,32.72
2023-08-24T10:25:59.084Z,33.13
2023-08-24T10:31:04.820Z,32.88
2023-08-24T10:36:09.932Z,33.27
2023-08-24T10:41:16.471Z,33.75
2023-08-24T10:46:21.824Z,33.11
2023-08-24T10:51:28.798Z,33.28
2023-08-24T10:56:39.659Z,33.73
2023-08-24T11:01:43.902Z,33.14
2023-08-24T11:06:56.767Z,33.23
2023-08-24T11:12:02.221Z,33.81
2023-08-24T11:17:24.065Z,33.84
2023-08-24T11:22:29.457Z,33.69
2023-08-24T11:27:35.954Z,33.54
2023-08-24T11:32:39.219Z,33.90
2023-08-24T11:37:44.081Z,33.75
2023-08-24T11:42:47.317Z,33.31
2023-08-24T11:47:51.458Z,33.65
2023-08-24T11:52:57.022Z,33.46
2023-08-24T11:58:01.338Z,33.47
2023-08-24T12:03:04.889Z,33.61
2023-08-24T12:08:09.522Z,33.65
2023-08-24T12:13:15.123Z,32.72
2023-08-24T12:18:18.466Z,32.88
2023-08-24T12:23:23.405Z,32.63
2023-08-24T12:28:26.615Z,33.07
2023-08-24T12:33:32.288Z,32.29
2023-08-24T12:38:37.244Z,32.41
2023-08-24T12:43:41.535Z,32.91
2023-08-24T12:48:45.765Z,32.36
2023-08-24T12:53:50.404Z,32.53
2023-08-24T12:58:53.910Z,32.24
2023-08-24T13:03:57.341Z,32.58
2023-08-24T13:09:02.147Z,32.64
2023-08-24T13:14:05.593Z,32.57
2023-08-24T13:19:08.900Z,33.01
2023-08-24T13:24:13.582Z,33.02
2023-08-24T13:29:18.227Z,33.09
2023-08-24T13:34:21.605Z,33.22
2023-08-24T13:39:29.709Z,33.19
2023-08-24T13:44:32.970Z,33.26
2023-08-24T13:49:40.426Z,33.22
2023-08-24T13:54:53.512Z,33.58
2023-08-24T14:00:01.843Z,33.76
2023-08-24T14:05:07.462Z,33.84
2023-08-24T14:10:13.205Z,33.56
2023-08-24T14:15:16.581Z,33.87
2023-08-24T14:20:20.016Z,34.01
2023-08-24T14:25:24.868Z,34.06
2023-08-24T14:30:28.319Z,33.97
2023-08-24T14:35:33.977Z,34.06
2023-08-24T14:40:39.053Z,34.17
2023-08-24T14:45:42.399Z,33.91
2023-08-24T14:50:45.704Z,33.61
2023-08-24T14:55:50.405Z,34.14
2023-08-24T15:00:55.110Z,34.11
2023-08-24T15:06:00.685Z,33.96
2023-08-24T15:11:08.403Z,33.87
2023-08-24T15:16:12.198Z,34.11
2023-08-24T15:21:16.382Z,34.13
2023-08-24T15:26:21.529Z,34.35
2023-08-24T15:31:24.873Z,34.02
2023-08-24T15:36:28.183Z,33.42
2023-08-24T15:41:33.441Z,33.23
2023-08-24T15:46:36.731Z,33.28
2023-08-24T15:51:40.804Z,33.30
2023-08-24T15:56:46.533Z,33.12
2023-08-24T16:01:50.034Z,32.91
2023-08-24T16:06:54.214Z,32.66
2023-08-24T16:11:59.647Z,32.55
2023-08-24T16:17:03.186Z,32.55
2023-08-24T16:22:08.296Z,32.45
2023-08-24T16:27:13.004Z,32.29
2023-08-24T16:32:16.293Z,32.17
2023-08-24T16:37:19.644Z,32.10
2023-08-24T16:42:25.120Z,32.06
2023-08-24T16:47:28.360Z,32.01
2023-08-24T16:52:32.440Z,31.78
2023-08-24T16:57:37.083Z,31.62
2023-08-24T17:02:40.950Z,31.44
2023-08-24T17:07:44.249Z,31.60
2023-08-24T17:12:48.873Z,31.44
2023-08-24T17:17:52.753Z,31.06
2023-08-24T17:22:56.389Z,30.98
2023-08-24T17:28:01.889Z,30.98
2023-08-24T17:33:05.650Z,30.66
2023-08-24T17:38:09.019Z,30.74
2023-08-24T17:43:13.973Z,30.62
2023-08-24T17:48:17.761Z,30.70
2023-08-24T17:53:23.059Z,30.33
2023-08-24T17:58:28.050Z,30.34
2023-08-24T18:03:31.446Z,30.29
2023-08-24T18:08:49.294Z,29.97
2023-08-24T18:13:56.892Z,29.93
2023-08-24T18:19:00.492Z,29.75
2023-08-24T18:24:03.914Z,29.41
2023-08-24T18:29:08.330Z,29.04
2023-08-24T18:34:12.599Z,28.79
2023-08-24T18:39:16.215Z,28.60
2023-08-24T18:44:21.757Z,28.56
2023-08-24T18:49:25.009Z,28.58
2023-08-24T18:54:29.376Z,28.44
2023-08-24T18:59:34.066Z,28.36
2023-08-24T19:04:37.613Z,28.22
2023-08-24T19:09:40.756Z,28.06
2023-08-24T19:14:45.538Z,27.87
2023-08-24T19:19:51.596Z,27.71
2023-08-24T19:24:54.905Z,27.60
2023-08-24T19:30:00.305Z,27.46
2023-08-24T19:35:04.366Z,27.41
2023-08-24T19:40:09.013Z,27.24
2023-08-24T19:45:14.509Z,27.15
2023-08-24T19:50:17.976Z,27.04
2023-08-24T19:55:21.212Z,26.94
2023-08-24T20:00:26.212Z,26.77
2023-08-24T20:05:31.637Z,26.62
2023-08-24T20:10:35.611Z,26.65
2023-08-24T20:15:40.399Z,26.44
2023-08-24T20:20:44.388Z,26.60
2023-08-24T20:25:47.638Z,26.43
2023-08-24T20:30:52.329Z,26.47
2023-08-24T20:35:55.589Z,26.44
2023-08-24T20:40:59.065Z,26.44
2023-08-24T20:46:04.545Z,26.42
2023-08-24T20:51:07.822Z,26.53
2023-08-24T20:56:12.553Z,26.29
2023-08-24T21:01:18.068Z,26.14
2023-08-24T21:06:21.379Z,26.27
2023-08-24T21:11:24.645Z,26.09
2023-08-24T21:16:29.453Z,25.99
2023-08-24T21:21:32.812Z,25.74
2023-08-24T21:26:36.083Z,25.78
2023-08-24T21:31:40.724Z,25.60
2023-08-24T21:36:44.119Z,25.67
2023-08-24T21:41:47.438Z,25.53
2023-08-24T21:46:52.180Z,25.23
2023-08-24T21:51:55.441Z,25.35
2023-08-24T21:56:59.446Z,25.32
2023-08-24T22:02:04.039Z,25.14
2023-08-24T22:07:07.420Z,25.19
2023-08-24T22:12:10.772Z,24.92
2023-08-24T22:17:15.560Z,24.76
2023-08-24T22:22:19.961Z,24.55
2023-08-24T22:27:23.230Z,24.70
2023-08-24T22:32:28.287Z,24.68
2023-08-24T22:37:31.660Z,24.80
2023-08-24T22:42:34.993Z,24.90
2023-08-24T22:47:39.835Z,24.81
2023-08-24T22:52:43.595Z,24.55
2023-08-24T22:57:47.250Z,24.30
2023-08-24T23:02:52.190Z,24.25
2023-08-24T23:07:55.882Z,24.24
2023-08-24T23:12:59.543Z,24.12
2023-08-24T23:18:04.370Z,24.00
2023-08-24T23:23:07.742Z,24.05
2023-08-24T23:28:11.004Z,23.97
2023-08-24T23:33:17.023Z,23.77
2023-08-24T23:38:21.017Z,23.63
2023-08-24T23:43:25.051Z,23.57
2023-08-24T23:48:29.715Z,23.59
2023-08-24T23:53:33.071Z,23.56
2023-08-24T23:58:36.608Z,23.55
